createdAt,value
2018-12-09T00:02:20.443Z,122.33
2018-12-09T00:04:50.688Z,122.75
2018-12-09T00:07:21.010Z,132.60
2018-12-09T00:09:54.234Z,136.07
2018-12-09T00:13:46.895Z,129.55
2018-12-09T00:16:15.092Z,130.85
2018-12-09T00:19:00.172Z,142.85
2018-12-09T00:21:29.017Z,144.45
2018-12-09T00:23:57.120Z,145.77
2018-12-09T00:26:28.726Z,145.43
2018-12-09T00:28:56.845Z,132.40
2018-12-09T00:31:25.236Z,141.92
2018-12-09T00:33:53.524Z,132.30
2018-12-09T00:36:22.990Z,110.85
2018-12-09T00:38:51.139Z,102.90
2018-12-09T00:41:19.636Z,88.95
2018-12-09T00:43:47.928Z,81.75
2018-12-09T00:46:16.120Z,79.00
2018-12-09T00:48:45.671Z,66.53
2018-12-09T00:51:13.779Z,53.68
2018-12-09T00:53:42.221Z,54.13
2018-12-09T00:56:10.444Z,42.73
2018-12-09T00:58:38.768Z,39.15
2018-12-09T01:01:07.049Z,36.25
2018-12-09T01:03:35.262Z,33.45
2018-12-09T01:06:04.935Z,29.40
2018-12-09T01:08:33.055Z,29.37
2018-12-09T01:11:01.360Z,21.87
2018-12-09T01:13:30.390Z,17.50
2018-12-09T01:15:58.740Z,20.08
2018-12-09T01:18:27.064Z,14.45
2018-12-09T01:20:55.264Z,12.60
2018-12-09T01:23:25.152Z,9.70
2018-12-09T01:25:53.512Z,8.45
2018-12-09T01:28:21.716Z,7.97
2018-12-09T01:30:50.020Z,6.95
2018-12-09T01:33:18.267Z,7.83
2018-12-09T01:35:46.590Z,6.75
2018-12-09T01:38:14.818Z,7.85
2018-12-09T01:40:48.340Z,8.10
2018-12-09T01:43:16.721Z,8.40
2018-12-09T01:45:45.012Z,7.92
2018-12-09T01:48:13.299Z,8.35
2018-12-09T01:50:42.779Z,8.18
2018-12-09T01:53:23.823Z,8.35
2018-12-09T01:55:52.019Z,8.80
2018-12-09T01:58:20.439Z,9.43
2018-12-09T02:00:48.536Z,9.10
2018-12-09T02:03:16.858Z,9.70
2018-12-09T02:05:45.122Z,9.20
2018-12-09T02:08:14.368Z,8.05
2018-12-09T02:10:42.513Z,7.35
2018-12-09T02:13:11.176Z,8.95
2018-12-09T02:15:39.500Z,7.47
2018-12-09T02:18:07.750Z,8.33
2018-12-09T02:20:35.875Z,8.23
2018-12-09T02:23:04.354Z,9.08
2018-12-09T02:25:32.579Z,7.47
2018-12-09T02:28:02.075Z,8.48
2018-12-09T02:30:30.368Z,9.35
2018-12-09T02:32:58.628Z,7.25
2018-12-09T02:35:27.316Z,7.92
2018-12-09T02:37:56.404Z,8.13
2018-12-09T02:40:24.692Z,7.90
2018-12-09T02:42:52.957Z,7.90
2018-12-09T02:45:22.481Z,7.45
2018-12-09T02:47:50.710Z,8.00
2018-12-09T02:50:19.823Z,7.75
2018-12-09T02:52:48.117Z,8.03
2018-12-09T02:55:16.353Z,11.12
2018-12-09T02:57:45.081Z,9.35
2018-12-09T03:00:13.930Z,8.23
2018-12-09T03:02:43.262Z,7.95
2018-12-09T03:05:11.568Z,7.10
2018-12-09T03:07:39.851Z,8.33
2018-12-09T03:10:08.160Z,7.50
2018-12-09T03:12:36.263Z,6.22
2018-12-09T03:15:05.002Z,7.28
2018-12-09T03:17:33.325Z,6.50
2018-12-09T03:20:03.009Z,6.72
2018-12-09T03:22:31.499Z,6.45
2018-12-09T03:24:59.615Z,6.20
2018-12-09T03:27:28.052Z,6.35
2018-12-09T03:29:56.373Z,7.20
2018-12-09T03:32:24.608Z,5.65
2018-12-09T03:34:52.996Z,6.65
2018-12-09T03:37:21.131Z,6.28
2018-12-09T03:39:49.428Z,5.90
2018-12-09T03:42:17.733Z,4.87
2018-12-09T03:44:45.992Z,5.85
2018-12-09T03:47:14.281Z,5.55
2018-12-09T03:49:42.517Z,4.75
2018-12-09T03:52:10.865Z,6.97
2018-12-09T03:54:39.530Z,6.08
2018-12-09T03:57:07.795Z,5.80
2018-12-09T03:59:36.061Z,5.42
2018-12-09T04:02:04.399Z,6.75
2018-12-09T04:04:32.615Z,5.47
2018-12-09T04:07:01.301Z,5.70
2018-12-09T04:09:30.839Z,5.67
2018-12-09T04:11:59.082Z,4.55
2018-12-09T04:14:27.521Z,4.97
2018-12-09T04:16:56.017Z,4.80
2018-12-09T04:19:24.295Z,5.20
2018-12-09T04:21:52.599Z,5.20
2018-12-09T04:24:20.879Z,5.20
2018-12-09T04:26:49.175Z,6.22
2018-12-09T04:29:17.416Z,5.20
2018-12-09T04:31:45.726Z,4.70
2018-12-09T04:34:13.839Z,5.35
2018-12-09T04:36:41.980Z,6.22
2018-12-09T04:39:11.736Z,6.45
2018-12-09T04:41:40.473Z,11.63
2018-12-09T04:44:08.723Z,6.85
2018-12-09T04:46:36.846Z,7.72
2018-12-09T04:49:05.259Z,7.30
2018-12-09T04:51:44.483Z,7.25
2018-12-09T04:54:12.855Z,6.72
2018-12-09T04:56:41.184Z,6.75
2018-12-09T04:59:17.347Z,6.70
2018-12-09T05:01:46.211Z,7.33
2018-12-09T05:04:14.791Z,7.75
2018-12-09T05:06:43.341Z,6.15
2018-12-09T05:09:11.504Z,5.95
2018-12-09T05:11:39.963Z,6.97
2018-12-09T05:14:10.141Z,6.65
2018-12-09T05:16:40.045Z,5.97
2018-12-09T05:19:08.349Z,7.62
2018-12-09T05:21:36.435Z,6.92
2018-12-09T05:24:04.858Z,7.75
2018-12-09T05:26:33.157Z,5.60
2018-12-09T05:29:01.889Z,7.20
2018-12-09T05:31:30.190Z,7.25
2018-12-09T05:33:58.288Z,8.03
2018-12-09T05:36:28.349Z,7.42
2018-12-09T05:38:56.579Z,7.90
2018-12-09T05:41:24.856Z,8.65
2018-12-09T05:43:53.183Z,6.65
2018-12-09T05:46:23.279Z,7.12
2018-12-09T05:48:51.748Z,7.62
2018-12-09T05:51:21.295Z,7.50
2018-12-09T05:53:49.559Z,6.92
2018-12-09T05:56:18.244Z,9.65
2018-12-09T05:58:46.519Z,11.12
2018-12-09T06:01:15.335Z,9.13
2018-12-09T06:03:43.895Z,7.58
2018-12-09T06:06:12.107Z,7.72
2018-12-09T06:08:40.430Z,8.00
2018-12-09T06:11:08.720Z,9.55
2018-12-09T06:13:36.968Z,9.95
2018-12-09T06:16:05.224Z,8.98
2018-12-09T06:18:33.601Z,8.05
2018-12-09T06:21:01.759Z,8.05
2018-12-09T06:23:31.732Z,7.72
2018-12-09T06:25:59.994Z,6.92
2018-12-09T06:28:28.334Z,8.00
2018-12-09T06:30:56.529Z,9.88
2018-12-09T06:33:24.699Z,7.72
2018-12-09T06:35:53.553Z,9.93
2018-12-09T06:38:21.748Z,10.35
2018-12-09T06:40:50.079Z,9.68
2018-12-09T06:43:18.195Z,10.48
2018-12-09T06:45:46.306Z,10.35
2018-12-09T06:48:14.479Z,11.15
2018-12-09T06:50:43.984Z,12.07
2018-12-09T06:53:12.292Z,11.68
2018-12-09T06:55:41.555Z,12.10
2018-12-09T06:58:09.659Z,13.48
2018-12-09T07:00:38.313Z,14.65
2018-12-09T07:03:07.115Z,14.20
2018-12-09T07:05:35.692Z,15.10
2018-12-09T07:08:03.868Z,15.05
2018-12-09T07:10:32.228Z,12.93
2018-12-09T07:13:00.942Z,14.87
2018-12-09T07:15:29.256Z,14.38
2018-12-09T07:17:58.784Z,15.60
2018-12-09T07:20:26.914Z,13.62
2018-12-09T07:22:55.252Z,12.80
2018-12-09T07:25:23.527Z,13.88
2018-12-09T07:27:51.852Z,12.80
2018-12-09T07:30:20.100Z,12.95
2018-12-09T07:32:48.366Z,12.30
2018-12-09T07:35:16.635Z,13.60
2018-12-09T07:37:45.619Z,11.95
2018-12-09T07:40:13.748Z,11.75
2018-12-09T07:42:42.255Z,12.15
2018-12-09T07:45:10.403Z,11.03
2018-12-09T07:47:38.916Z,11.00
2018-12-09T07:50:07.157Z,12.88
2018-12-09T07:52:36.660Z,13.58
2018-12-09T07:55:06.618Z,10.78
2018-12-09T07:57:34.797Z,10.13
2018-12-09T08:00:03.275Z,9.83
2018-12-09T08:02:33.800Z,8.90
2018-12-09T08:05:02.123Z,10.25
2018-12-09T08:07:30.363Z,11.10
2018-12-09T08:09:58.652Z,11.80
2018-12-09T08:12:26.912Z,10.20
2018-12-09T08:14:55.223Z,11.73
2018-12-09T08:17:23.498Z,9.65
2018-12-09T08:19:51.736Z,9.85
2018-12-09T08:22:19.836Z,10.38
2018-12-09T08:24:48.352Z,11.33
2018-12-09T08:27:17.816Z,10.10
2018-12-09T08:29:46.285Z,10.72
2018-12-09T08:32:14.778Z,10.55
2018-12-09T08:34:42.934Z,11.90
2018-12-09T08:37:11.367Z,10.93
2018-12-09T08:39:39.615Z,10.80
2018-12-09T08:42:07.846Z,11.60
2018-12-09T08:44:36.174Z,10.28
2018-12-09T08:47:04.488Z,10.40
2018-12-09T08:49:34.360Z,12.68
2018-12-09T08:52:03.531Z,11.35
2018-12-09T08:54:31.785Z,12.43
2018-12-09T08:56:59.919Z,12.95
2018-12-09T08:59:28.291Z,12.82
2018-12-09T09:01:56.540Z,12.50
2018-12-09T09:04:26.075Z,12.90
2018-12-09T09:06:54.393Z,13.50
2018-12-09T09:09:23.521Z,13.48
2018-12-09T09:11:53.943Z,11.30
2018-12-09T09:14:22.443Z,12.40
2018-12-09T09:16:50.879Z,12.80
2018-12-09T09:19:19.395Z,12.45
2018-12-09T09:21:47.588Z,11.78
2018-12-09T09:24:15.973Z,12.70
2018-12-09T09:26:44.285Z,11.15
2018-12-09T09:29:12.603Z,10.65
2018-12-09T09:31:41.167Z,11.93
2018-12-09T09:34:09.468Z,13.88
2018-12-09T09:36:37.702Z,12.63
2018-12-09T09:39:06.542Z,11.10
2018-12-09T09:41:35.933Z,10.38
2018-12-09T09:44:04.172Z,10.20
2018-12-09T09:46:33.207Z,8.68
2018-12-09T09:49:01.535Z,8.65
2018-12-09T09:51:30.835Z,10.00
2018-12-09T09:53:59.361Z,15.55
2018-12-09T09:56:28.003Z,10.90
2018-12-09T09:58:56.107Z,10.43
2018-12-09T10:01:24.606Z,11.55
2018-12-09T10:03:52.882Z,10.63
2018-12-09T10:06:21.327Z,11.38
2018-12-09T10:08:50.435Z,11.22
2018-12-09T10:11:18.948Z,9.13
2018-12-09T10:13:47.195Z,9.93
2018-12-09T10:16:15.479Z,10.32
2018-12-09T10:18:43.715Z,12.35
2018-12-09T10:21:12.035Z,12.60
2018-12-09T10:23:41.088Z,14.78
2018-12-09T10:26:10.611Z,12.28
2018-12-09T10:28:40.086Z,9.98
2018-12-09T10:31:08.912Z,8.73
2018-12-09T10:33:37.045Z,7.37
2018-12-09T10:36:06.584Z,8.80
2018-12-09T10:38:41.183Z,7.35
2018-12-09T10:41:09.713Z,7.28
2018-12-09T10:43:39.164Z,6.35
2018-12-09T10:46:12.800Z,7.55
2018-12-09T10:48:42.951Z,7.35
2018-12-09T10:51:11.396Z,7.85
2018-12-09T10:53:40.339Z,6.95
2018-12-09T10:56:08.778Z,8.35
2018-12-09T10:58:37.029Z,6.87
2018-12-09T11:01:11.434Z,7.50
2018-12-09T11:03:40.655Z,6.87
2018-12-09T11:06:08.860Z,7.85
2018-12-09T11:08:41.799Z,8.70
2018-12-09T11:11:09.927Z,7.85
2018-12-09T11:13:38.127Z,9.23
2018-12-09T11:16:07.302Z,7.97
2018-12-09T11:18:35.524Z,7.25
2018-12-09T11:21:03.865Z,7.70
2018-12-09T11:23:32.002Z,8.38
2018-12-09T11:26:00.339Z,7.72
2018-12-09T11:28:29.900Z,8.40
2018-12-09T11:30:58.524Z,8.28
2018-12-09T11:33:26.885Z,7.65
2018-12-09T11:35:55.123Z,7.30
2018-12-09T11:38:23.380Z,8.20
2018-12-09T11:40:51.671Z,7.30
2018-12-09T11:43:19.938Z,7.95
2018-12-09T11:45:48.253Z,7.33
2018-12-09T11:48:16.515Z,8.10
2018-12-09T11:50:44.780Z,8.80
2018-12-09T11:53:13.195Z,8.03
2018-12-09T11:55:41.702Z,7.42
2018-12-09T11:58:10.036Z,8.05
2018-12-09T12:00:38.282Z,7.10
2018-12-09T12:03:06.557Z,7.60
2018-12-09T12:05:34.867Z,7.62
2018-12-09T12:08:04.379Z,8.48
2018-12-09T12:10:32.483Z,8.23
2018-12-09T12:13:00.865Z,8.40
2018-12-09T12:15:29.144Z,7.50
2018-12-09T12:17:58.385Z,7.83
2018-12-09T12:20:27.763Z,8.65
2018-12-09T12:22:55.868Z,8.35
2018-12-09T12:25:24.315Z,7.70
2018-12-09T12:27:52.659Z,8.55
2018-12-09T12:30:20.848Z,7.17
2018-12-09T12:32:49.524Z,7.58
2018-12-09T12:35:17.852Z,7.33
2018-12-09T12:37:46.929Z,8.33
2018-12-09T12:40:15.260Z,7.87
2018-12-09T12:42:44.807Z,8.38
2018-12-09T12:45:13.561Z,9.00
2018-12-09T12:47:42.660Z,8.73
2018-12-09T12:50:11.222Z,9.23
2018-12-09T12:52:39.482Z,10.30
2018-12-09T12:55:07.754Z,10.23
2018-12-09T12:57:36.011Z,8.48
2018-12-09T13:00:13.515Z,9.15
2018-12-09T13:02:42.264Z,10.60
2018-12-09T13:05:11.512Z,10.00
2018-12-09T13:07:44.311Z,10.75
2018-12-09T13:10:12.539Z,10.65
2018-12-09T13:12:42.587Z,12.00
2018-12-09T13:15:11.171Z,11.10
2018-12-09T13:17:39.439Z,11.18
2018-12-09T13:20:08.458Z,13.60
2018-12-09T13:22:36.547Z,13.08
2018-12-09T13:25:05.495Z,12.93
2018-12-09T13:27:33.740Z,13.72
2018-12-09T13:30:02.916Z,15.03
2018-12-09T13:32:32.213Z,12.63
2018-12-09T13:35:00.658Z,13.32
2018-12-09T13:37:30.148Z,13.10
2018-12-09T13:39:58.412Z,12.58
2018-12-09T13:42:26.701Z,14.58
2018-12-09T13:44:54.956Z,12.95
2018-12-09T13:47:24.104Z,14.60
2018-12-09T13:49:52.320Z,13.48
2018-12-09T13:52:20.618Z,13.25
2018-12-09T13:54:48.881Z,11.53
2018-12-09T13:57:17.466Z,13.20
2018-12-09T13:59:45.838Z,13.85
2018-12-09T14:02:14.738Z,16.60
2018-12-09T14:04:43.910Z,15.48
2018-12-09T14:07:13.116Z,19.55
2018-12-09T14:09:41.363Z,16.55
2018-12-09T14:12:09.688Z,13.93
2018-12-09T14:14:39.243Z,14.20
2018-12-09T14:17:08.270Z,14.10
2018-12-09T14:19:36.593Z,12.68
2018-12-09T14:22:06.082Z,14.15
2018-12-09T14:24:34.343Z,13.98
2018-12-09T14:27:02.676Z,14.98
2018-12-09T14:29:31.351Z,15.18
2018-12-09T14:31:59.844Z,14.40
2018-12-09T14:34:29.329Z,14.98
2018-12-09T14:36:57.719Z,19.52
2018-12-09T14:39:26.837Z,19.25
2018-12-09T14:41:55.139Z,18.45
2018-12-09T14:44:24.680Z,15.03
2018-12-09T14:46:52.923Z,15.80
2018-12-09T14:49:21.958Z,15.68
2018-12-09T14:51:50.564Z,17.45
2018-12-09T14:54:18.939Z,17.67
2018-12-09T14:56:48.477Z,18.90
2018-12-09T14:59:16.748Z,21.62
2018-12-09T15:01:45.062Z,23.00
2018-12-09T15:04:13.306Z,23.22
2018-12-09T15:06:41.481Z,25.52
2018-12-09T15:09:11.330Z,24.40
2018-12-09T15:11:39.795Z,22.45
2018-12-09T15:14:08.047Z,20.62
2018-12-09T15:16:36.332Z,22.67
2018-12-09T15:19:04.580Z,21.85
2018-12-09T15:21:32.850Z,22.35
2018-12-09T15:24:01.128Z,23.15
2018-12-09T15:26:29.505Z,21.77
2018-12-09T15:28:57.732Z,18.42
2018-12-09T15:31:27.627Z,19.25
2018-12-09T15:33:55.855Z,21.35
2018-12-09T15:36:24.135Z,27.17
2018-12-09T15:38:52.436Z,32.70
2018-12-09T15:41:20.746Z,38.15
2018-12-09T15:43:49.028Z,39.08
2018-12-09T15:46:17.126Z,32.67
2018-12-09T15:48:45.599Z,37.90
2018-12-09T15:51:14.127Z,31.75
2018-12-09T15:53:42.539Z,32.58
2018-12-09T15:56:10.779Z,34.75
2018-12-09T15:58:38.955Z,36.75
2018-12-09T16:01:07.336Z,33.00
2018-12-09T16:03:35.599Z,32.53
2018-12-09T16:06:04.079Z,34.38
2018-12-09T16:08:32.595Z,36.42
2018-12-09T16:11:00.863Z,37.00
2018-12-09T16:13:30.356Z,36.88
2018-12-09T16:15:58.711Z,34.40
2018-12-09T16:18:26.915Z,35.60
2018-12-09T16:20:56.044Z,38.28
2018-12-09T16:23:25.092Z,41.77
2018-12-09T16:25:54.603Z,43.08
2018-12-09T16:28:22.891Z,44.05
2018-12-09T16:30:51.030Z,47.03
2018-12-09T16:33:19.441Z,47.05
2018-12-09T16:35:47.744Z,46.75
2018-12-09T16:38:16.419Z,47.88
2018-12-09T16:40:44.652Z,45.15
2018-12-09T16:43:12.971Z,45.30
2018-12-09T16:45:41.232Z,44.48
2018-12-09T16:48:09.531Z,45.00
2018-12-09T16:50:38.346Z,47.13
2018-12-09T16:53:06.903Z,44.75
2018-12-09T16:55:35.243Z,41.63
2018-12-09T16:58:05.580Z,34.05
2018-12-09T17:00:33.772Z,29.02
2018-12-09T17:03:01.999Z,27.80
2018-12-09T17:05:30.310Z,30.92
2018-12-09T17:08:00.267Z,28.50
2018-12-09T17:10:28.463Z,31.07
2018-12-09T17:12:56.776Z,40.65
2018-12-09T17:15:25.035Z,43.38
2018-12-09T17:17:53.350Z,48.10
2018-12-09T17:20:21.592Z,47.48
2018-12-09T17:22:49.909Z,49.93
2018-12-09T17:25:18.123Z,44.53
2018-12-09T17:27:48.464Z,49.45
2018-12-09T17:30:16.740Z,49.65
2018-12-09T17:32:45.048Z,45.20
2018-12-09T17:35:13.317Z,41.28
2018-12-09T17:37:42.534Z,37.20
2018-12-09T17:40:11.119Z,33.75
2018-12-09T17:42:40.091Z,35.60
2018-12-09T17:45:08.545Z,35.25
2018-12-09T17:47:36.761Z,34.33
2018-12-09T17:50:23.037Z,34.65
2018-12-09T17:52:53.335Z,34.73
2018-12-09T17:55:21.620Z,36.90
2018-12-09T17:57:49.968Z,36.20
2018-12-09T18:00:19.156Z,35.03
2018-12-09T18:02:47.680Z,36.33
2018-12-09T18:05:17.155Z,35.65
2018-12-09T18:07:45.519Z,38.25
2018-12-09T18:10:14.178Z,35.15
2018-12-09T18:12:48.066Z,35.15
2018-12-09T18:15:16.913Z,35.38
2018-12-09T18:17:48.408Z,34.15
2018-12-09T18:20:16.737Z,34.85
2018-12-09T18:22:44.968Z,33.90
2018-12-09T18:25:13.320Z,34.18
2018-12-09T18:27:41.840Z,39.73
2018-12-09T18:30:11.116Z,40.55
2018-12-09T18:32:40.680Z,39.33
2018-12-09T18:35:10.021Z,40.70
2018-12-09T18:37:38.982Z,39.33
2018-12-09T18:40:08.550Z,43.50
2018-12-09T18:42:36.864Z,41.08
2018-12-09T18:45:06.188Z,42.50
2018-12-09T18:47:35.730Z,52.23
2018-12-09T18:50:05.685Z,58.48
2018-12-09T18:52:34.245Z,62.25
2018-12-09T18:55:04.552Z,67.37
2018-12-09T18:57:33.132Z,67.17
2018-12-09T19:00:02.896Z,67.80
2018-12-09T19:02:32.836Z,74.03
2018-12-09T19:05:01.250Z,65.45
2018-12-09T19:07:29.558Z,65.30
2018-12-09T19:09:59.832Z,69.17
2018-12-09T19:12:31.189Z,68.15
2018-12-09T19:14:59.800Z,64.00
2018-12-09T19:17:28.327Z,76.15
2018-12-09T19:19:56.672Z,63.25
2018-12-09T19:22:25.553Z,61.65
2018-12-09T19:24:53.941Z,59.38
2018-12-09T19:27:22.252Z,61.40
2018-12-09T19:29:51.768Z,57.62
2018-12-09T19:32:20.083Z,55.00
2018-12-09T19:34:48.306Z,51.20
2018-12-09T19:37:16.583Z,49.65
2018-12-09T19:39:45.625Z,49.48
2018-12-09T19:42:13.920Z,44.10
2018-12-09T19:44:42.251Z,42.62
2018-12-09T19:47:11.168Z,41.88
2018-12-09T19:49:39.782Z,40.78
2018-12-09T19:52:09.268Z,41.30
2018-12-09T19:54:39.598Z,43.50
2018-12-09T19:57:08.185Z,53.15
2018-12-09T19:59:36.692Z,49.60
2018-12-09T20:02:09.142Z,40.38
2018-12-09T20:04:37.521Z,39.60
2018-12-09T20:07:06.426Z,40.48
2018-12-09T20:09:34.818Z,38.28
2018-12-09T20:12:03.760Z,38.58
2018-12-09T20:14:32.222Z,32.35
2018-12-09T20:17:00.434Z,47.55
2018-12-09T20:19:28.711Z,51.45
2018-12-09T20:21:58.231Z,40.08
2018-12-09T20:24:26.351Z,33.08
2018-12-09T20:26:54.739Z,37.93
2018-12-09T20:29:23.076Z,27.05
2018-12-09T20:31:52.551Z,26.05
2018-12-09T20:34:23.104Z,28.27
2018-12-09T20:36:51.575Z,33.83
2018-12-09T20:39:21.090Z,28.75
2018-12-09T20:41:49.343Z,32.40
2018-12-09T20:44:17.639Z,34.30
2018-12-09T20:46:45.908Z,33.40
2018-12-09T20:49:14.599Z,35.65
2018-12-09T20:51:42.864Z,40.05
2018-12-09T20:54:11.239Z,45.38
2018-12-09T20:56:39.542Z,54.23
2018-12-09T20:59:08.986Z,56.08
2018-12-09T21:01:37.244Z,60.23
2018-12-09T21:04:05.506Z,61.63
2018-12-09T21:06:33.731Z,62.40
2018-12-09T21:09:02.075Z,58.68
2018-12-09T21:11:31.967Z,59.08
2018-12-09T21:14:00.235Z,54.70
2018-12-09T21:16:29.741Z,56.68
2018-12-09T21:18:59.208Z,60.33
2018-12-09T21:21:27.517Z,58.92
2018-12-09T21:23:55.690Z,60.55
2018-12-09T21:26:24.299Z,57.35
2018-12-09T21:28:53.873Z,55.17
2018-12-09T21:31:22.334Z,58.90
2018-12-09T21:33:51.800Z,55.20
2018-12-09T21:36:20.032Z,56.83
2018-12-09T21:38:48.292Z,55.38
2018-12-09T21:41:16.573Z,52.78
2018-12-09T21:43:44.928Z,55.17
2018-12-09T21:46:14.428Z,77.03
2018-12-09T21:48:42.615Z,57.70
2018-12-09T21:51:11.745Z,58.15
2018-12-09T21:53:41.283Z,59.77
2018-12-09T21:56:09.547Z,56.20
2018-12-09T21:58:37.827Z,61.60
2018-12-09T22:01:06.071Z,59.42
2018-12-09T22:03:35.592Z,58.65
2018-12-09T22:06:04.071Z,60.40
2018-12-09T22:08:33.371Z,64.25
2018-12-09T22:11:01.714Z,65.47
2018-12-09T22:13:30.046Z,64.42
2018-12-09T22:15:58.201Z,64.77
2018-12-09T22:18:26.482Z,63.52
2018-12-09T22:20:54.738Z,69.58
2018-12-09T22:23:23.040Z,70.42
2018-12-09T22:25:51.309Z,95.25
2018-12-09T22:28:19.567Z,77.32
2018-12-09T22:30:47.891Z,74.95
2018-12-09T22:36:09.040Z,72.65
2018-12-09T22:38:37.194Z,68.25
2018-12-09T22:41:05.562Z,66.40
2018-12-09T22:43:33.779Z,66.90
2018-12-09T22:46:02.060Z,69.82
2018-12-09T22:48:30.384Z,67.67
2018-12-09T22:50:58.623Z,70.42
2018-12-09T22:53:26.905Z,70.00
2018-12-09T22:55:55.173Z,71.92
2018-12-09T22:58:23.464Z,70.05
2018-12-09T23:00:59.117Z,66.72
2018-12-09T23:03:29.459Z,71.45
2018-12-09T23:05:57.690Z,66.17
2018-12-09T23:08:25.966Z,68.72
2018-12-09T23:10:54.248Z,66.05
2018-12-09T23:13:22.503Z,66.05
2018-12-09T23:15:51.604Z,62.95
2018-12-09T23:18:19.893Z,59.83
2018-12-09T23:20:48.172Z,61.53
2018-12-09T23:23:16.428Z,41.75
2018-12-09T23:25:44.796Z,39.65
2018-12-09T23:28:13.017Z,37.05
2018-12-09T23:30:41.708Z,37.08
2018-12-09T23:33:09.947Z,34.50
2018-12-09T23:35:38.873Z,32.28
2018-12-09T23:38:07.339Z,31.10
2018-12-09T23:40:35.607Z,34.78
2018-12-09T23:43:03.920Z,31.17
2018-12-09T23:45:33.393Z,29.20
2018-12-09T23:48:02.352Z,32.35
2018-12-09T23:50:30.830Z,32.90
2018-12-09T23:53:00.267Z,32.83
2018-12-09T23:55:28.546Z,30.43
2018-12-09T23:57:56.800Z,32.05
